Strona główna
METAR-TAF:

METAR-TAF

Lotnisko :

Port lotniczy Rinas

Tirana, Albania

Szerokość geograficzna: 41-20N, Długość geograficzna: 019-47E, wysokość: 89 m

Aktualna obserwacja pogody

Raport powstał 39 minut temu, godzina 01:20 UTC
Wiatr 2 kt z kierunków zmiennych
Temperatura 10°C
Wilgotność 87%
Ciśnienie 1011 hPa
Widzialność 10 km lub więcej
Zachmurzenie całkowite na wysokości 6200 ft

METAR: LATI 040120Z VRB02KT 9999 OVC062 10/08 Q1011 NOSIG

czas: 03:59 (01:59 UTC)

Prognoza

Raport powstał 2 godziny i 59 minut temu, godzina 23:00 UTC
Prognoza ważna od 04 godzina 00 UTC do 04 godzina 24 UTC
Wiatr 4 kt z kierunków zmiennych
Widzialność 10 km lub więcej
Przerywane chmury na wysokości 7000 ft
Stopniowe zmiany
od 04 godzina 06 UTC do 04 godzina 09 UTC
Wiatr 8 kt od północno-północny zachód
Przejściowo
od 04 godzina 11 UTC do 04 godzina 20 UTC
Wiatr 14 kt od północny wschód

TAF: LATI 032300Z 0400/0424 VRB04KT 9999 BKN070 TX18/0412Z TN08/0404Z BECMG 0406/0409 34008KT TEMPO 0411/0420 04014KT

Obserwacja i prognoza pogody dla ponad 4000 lotnisk (raport METAR i TAF).

Dostępne stacje oznaczono żółtymi i czerwonymi punktami na mapie.

Najedź kursorem aby zobaczyć nazwę stacji.

Kliknij aby zobaczyć obserwacje i prognozy pogody.

Aby zmienić mapę: kliknij na zielony przycisk z czarnym krzyżykiem, aby powiększyć; na zielony przycisk z myślnikiem, aby pomniejszyć; na zielone strzałki, aby przejść do map sąsiednich.


METAR-TAF: